KFHR/FHR METAR and TAF weather

Enter ICAO airport designator
Station Type Date Time Source
KFHR METAR 2024/04/15 08:53 UTC NOAA

KFHR 150853Z AUTO 24006KT 10SM OVC110 09/04 A3011 RMK AO2 SLP196 T00940039 51019


Station Type Date Time Source
KFHR Decoded METAR 2024/04/15 08:53 UTC NOAA

FRIDAY HARBOR AIRPORT, WA, United States (KFHR) 48-31N 123-02W 32M
Apr 15, 2024 - 04:53 AM EDT / 2024.04.15 0853 UTC
Wind: from the WSW (240 degrees) at 7 MPH (6 KT):0
Visibility: 10 mile(s):0
Sky conditions: overcast
Temperature: 48.9 F (9.4 C)
Dew Point: 39.0 F (3.9 C)
Relative Humidity: 68%
Pressure (altimeter): 30.11 in. Hg (1019 hPa)
Pressure tendency: 0.06 inches (1.9 hPa) higher than three hours ago
ob: KFHR 150853Z AUTO 24006KT 10SM OVC110 09/04 A3011 RMK AO2 SLP196 T00940039 51019
cycle: 9

Station Type Date Time Source
KFHR TAF UTC NOAA

Error!

Example: see airport list